createdAt,value
2023-03-30T00:00:11.647Z,11.10
2023-03-30T00:01:11.589Z,11.10
2023-03-30T00:02:11.567Z,11.15
2023-03-30T00:03:11.619Z,11.11
2023-03-30T00:04:11.716Z,11.10
2023-03-30T00:05:11.713Z,11.11
2023-03-30T00:06:11.517Z,11.04
2023-03-30T00:07:11.545Z,11.05
2023-03-30T00:08:11.500Z,11.02
2023-03-30T00:09:11.489Z,11.10
2023-03-30T00:10:11.510Z,11.04
2023-03-30T00:11:11.675Z,11.04
2023-03-30T00:12:11.466Z,11.00
2023-03-30T00:13:11.496Z,11.02
2023-03-30T00:14:11.442Z,10.99
2023-03-30T00:15:11.462Z,10.94
2023-03-30T00:16:11.480Z,11.08
2023-03-30T00:17:11.423Z,11.05
2023-03-30T00:18:11.422Z,11.04
2023-03-30T00:19:11.451Z,11.02
2023-03-30T00:20:11.428Z,11.04
2023-03-30T00:21:11.403Z,10.97
2023-03-30T00:22:11.379Z,10.99
2023-03-30T00:23:11.346Z,10.93
2023-03-30T00:24:11.375Z,10.93
2023-03-30T00:25:11.345Z,10.94
2023-03-30T00:26:11.315Z,10.96
2023-03-30T00:27:11.331Z,10.87
2023-03-30T00:28:11.315Z,10.84
2023-03-30T00:29:11.304Z,10.94
2023-03-30T00:30:11.280Z,10.97
2023-03-30T00:31:11.297Z,11.02
2023-03-30T00:32:11.311Z,11.00
2023-03-30T00:33:11.307Z,11.02
2023-03-30T00:34:11.269Z,11.04
2023-03-30T00:35:11.224Z,11.02
2023-03-30T00:36:11.491Z,11.00
2023-03-30T00:37:11.239Z,10.89
2023-03-30T00:38:11.194Z,10.94
2023-03-30T00:39:11.211Z,11.04
2023-03-30T00:40:11.212Z,10.96
2023-03-30T00:41:11.204Z,10.94
2023-03-30T00:42:11.182Z,10.99
2023-03-30T00:43:11.174Z,10.94
2023-03-30T00:44:11.131Z,10.96
2023-03-30T00:45:11.147Z,11.04
2023-03-30T00:46:11.181Z,11.04
2023-03-30T00:47:11.148Z,11.00
2023-03-30T00:48:11.188Z,11.11
2023-03-30T00:49:11.096Z,10.96
2023-03-30T00:50:11.094Z,11.00
2023-03-30T00:51:11.114Z,11.08
2023-03-30T00:52:11.099Z,11.00
2023-03-30T00:53:11.096Z,11.00
2023-03-30T00:54:11.114Z,10.94
2023-03-30T00:55:11.068Z,11.05
2023-03-30T00:56:11.027Z,10.93
2023-03-30T00:57:11.075Z,10.89
2023-03-30T00:58:11.020Z,10.79
2023-03-30T00:59:11.039Z,10.78
2023-03-30T01:00:11.011Z,10.81
2023-03-30T01:01:11.023Z,10.81
2023-03-30T01:02:11.088Z,10.75
2023-03-30T01:03:11.074Z,10.82
2023-03-30T01:04:11.079Z,10.81
2023-03-30T01:05:10.957Z,10.71
2023-03-30T01:06:10.948Z,10.74
2023-03-30T01:07:10.916Z,10.71
2023-03-30T01:08:10.916Z,10.67
2023-03-30T01:09:10.939Z,10.71
2023-03-30T01:10:10.882Z,10.67
2023-03-30T01:11:10.892Z,10.67
2023-03-30T01:12:10.865Z,10.69
2023-03-30T01:13:11.064Z,10.67
2023-03-30T01:14:10.868Z,10.67
2023-03-30T01:15:10.839Z,10.68
2023-03-30T01:16:10.841Z,10.67
2023-03-30T01:17:10.821Z,10.61
2023-03-30T01:18:10.889Z,10.68
2023-03-30T01:19:10.795Z,10.71
2023-03-30T01:20:10.779Z,10.63
2023-03-30T01:21:10.785Z,10.67
2023-03-30T01:22:10.770Z,10.64
2023-03-30T01:23:10.755Z,10.67
2023-03-30T01:24:10.814Z,10.67
2023-03-30T01:25:10.973Z,10.63
2023-03-30T01:26:10.724Z,10.69
2023-03-30T01:27:10.772Z,10.59
2023-03-30T01:28:10.706Z,10.63
2023-03-30T01:29:10.698Z,10.64
2023-03-30T01:30:10.705Z,10.61
2023-03-30T01:31:10.908Z,10.57
2023-03-30T01:32:10.673Z,10.63
2023-03-30T01:33:10.693Z,10.61
2023-03-30T01:34:10.665Z,10.64
2023-03-30T01:35:10.677Z,10.64
2023-03-30T01:36:10.672Z,10.61
2023-03-30T01:37:10.714Z,10.60
2023-03-30T01:38:10.698Z,10.60
2023-03-30T01:39:10.637Z,10.64
2023-03-30T01:40:10.634Z,10.60
2023-03-30T01:41:10.607Z,10.60
2023-03-30T01:42:10.617Z,10.59
2023-03-30T01:43:10.586Z,10.67
2023-03-30T01:44:10.574Z,10.57
2023-03-30T01:45:10.997Z,10.67
2023-03-30T01:46:10.592Z,10.61
2023-03-30T01:47:10.737Z,10.64
2023-03-30T01:48:10.561Z,10.63
2023-03-30T01:49:10.733Z,10.61
2023-03-30T01:50:10.727Z,10.64
2023-03-30T01:51:10.501Z,10.63
2023-03-30T01:52:10.496Z,10.69
2023-03-30T01:53:10.480Z,10.63
2023-03-30T01:54:10.468Z,10.68
2023-03-30T01:55:10.458Z,10.61
2023-03-30T01:56:10.469Z,10.64
2023-03-30T01:57:10.714Z,10.61
2023-03-30T01:58:10.439Z,10.59
2023-03-30T01:59:10.618Z,10.59
2023-03-30T02:00:10.394Z,10.59
2023-03-30T02:01:10.396Z,10.61
2023-03-30T02:02:10.561Z,10.59
2023-03-30T02:03:10.462Z,10.59
2023-03-30T02:04:10.379Z,10.59
2023-03-30T02:05:10.360Z,10.48
2023-03-30T02:06:10.341Z,10.57
2023-03-30T02:07:10.392Z,10.40
2023-03-30T02:08:10.321Z,10.51
2023-03-30T02:09:10.311Z,10.46
2023-03-30T02:10:10.312Z,10.48
2023-03-30T02:11:10.300Z,10.44
2023-03-30T02:12:10.290Z,10.37
2023-03-30T02:13:10.334Z,10.42
2023-03-30T02:14:10.303Z,10.37
2023-03-30T02:15:10.466Z,10.37
2023-03-30T02:16:10.337Z,10.33
2023-03-30T02:17:10.447Z,10.22
2023-03-30T02:18:10.333Z,10.22
2023-03-30T02:19:10.236Z,10.19
2023-03-30T02:20:10.220Z,10.19
2023-03-30T02:21:10.427Z,10.19
2023-03-30T02:22:10.196Z,10.16
2023-03-30T02:23:10.231Z,10.17
2023-03-30T02:24:10.190Z,10.17
2023-03-30T02:25:10.194Z,10.17
2023-03-30T02:26:10.164Z,10.19
2023-03-30T02:27:10.150Z,10.19
2023-03-30T02:28:10.163Z,10.15
2023-03-30T02:29:10.169Z,10.20
2023-03-30T02:30:10.171Z,10.22
2023-03-30T02:31:10.143Z,10.19
2023-03-30T02:32:10.135Z,10.19
2023-03-30T02:33:10.156Z,10.17
2023-03-30T02:34:10.052Z,10.12
2023-03-30T02:35:10.062Z,10.16
2023-03-30T02:36:10.158Z,10.05
2023-03-30T02:37:10.029Z,10.10
2023-03-30T02:38:10.039Z,10.05
2023-03-30T02:39:11.360Z,10.02
2023-03-30T02:40:10.029Z,10.09
2023-03-30T02:41:10.011Z,9.95
2023-03-30T02:42:10.040Z,10.01
2023-03-30T02:43:09.976Z,9.94
2023-03-30T02:44:09.972Z,9.95
2023-03-30T02:45:09.997Z,9.94
2023-03-30T02:46:09.978Z,9.87
2023-03-30T02:47:09.972Z,9.94
2023-03-30T02:48:10.009Z,9.91
2023-03-30T02:49:09.932Z,9.95
2023-03-30T02:50:09.910Z,9.91
2023-03-30T02:51:09.910Z,9.92
2023-03-30T02:52:09.925Z,9.95
2023-03-30T02:53:09.967Z,9.95
2023-03-30T02:54:09.887Z,9.83
2023-03-30T02:55:09.869Z,9.77
2023-03-30T02:56:09.874Z,9.80
2023-03-30T02:57:09.911Z,9.84
2023-03-30T02:58:09.826Z,9.83
2023-03-30T02:59:09.839Z,9.82
2023-03-30T03:00:09.824Z,9.84
2023-03-30T03:01:09.874Z,9.74
2023-03-30T03:02:09.886Z,9.77
2023-03-30T03:03:09.935Z,9.74
2023-03-30T03:04:09.801Z,9.73
2023-03-30T03:05:09.764Z,9.68
2023-03-30T03:06:09.766Z,9.65
2023-03-30T03:07:09.759Z,9.66
2023-03-30T03:08:09.736Z,9.62
2023-03-30T03:09:09.734Z,9.66
2023-03-30T03:10:09.711Z,9.58
2023-03-30T03:11:09.720Z,9.55
2023-03-30T03:12:09.938Z,9.58
2023-03-30T03:13:09.670Z,9.61
2023-03-30T03:14:09.682Z,9.61
2023-03-30T03:15:09.850Z,9.56
2023-03-30T03:16:09.648Z,9.56
2023-03-30T03:17:09.866Z,9.59
2023-03-30T03:18:09.650Z,9.50
2023-03-30T03:19:09.658Z,9.55
2023-03-30T03:20:09.604Z,9.59
2023-03-30T03:21:09.603Z,9.62
2023-03-30T03:22:09.582Z,9.56
2023-03-30T03:23:09.585Z,9.56
2023-03-30T03:24:09.568Z,9.56
2023-03-30T03:25:09.571Z,9.62
2023-03-30T03:26:09.562Z,9.58
2023-03-30T03:27:09.607Z,9.59
2023-03-30T03:28:09.536Z,9.62
2023-03-30T03:29:09.537Z,9.59
2023-03-30T03:30:09.520Z,9.61
2023-03-30T03:31:09.537Z,9.55
2023-03-30T03:32:09.561Z,9.62
2023-03-30T03:33:09.541Z,9.48
2023-03-30T03:34:09.477Z,9.55
2023-03-30T03:35:09.472Z,9.44
2023-03-30T03:36:09.466Z,9.37
2023-03-30T03:37:09.440Z,9.44
2023-03-30T03:38:09.430Z,9.37
2023-03-30T03:39:09.441Z,9.39
2023-03-30T03:40:09.460Z,9.39
2023-03-30T03:41:09.438Z,9.34
2023-03-30T03:42:09.372Z,9.23
2023-03-30T03:43:09.374Z,9.25
2023-03-30T03:44:09.365Z,9.31
2023-03-30T03:45:09.367Z,9.18
2023-03-30T03:46:09.600Z,9.22
2023-03-30T03:47:09.324Z,9.23
2023-03-30T03:48:09.445Z,9.14
2023-03-30T03:49:09.327Z,9.16
2023-03-30T03:50:09.313Z,9.18
2023-03-30T03:51:09.320Z,9.19
2023-03-30T03:52:09.291Z,9.11
2023-03-30T03:53:09.276Z,9.22
2023-03-30T03:54:09.257Z,9.10
2023-03-30T03:55:09.486Z,9.10
2023-03-30T03:56:09.244Z,9.08
2023-03-30T03:57:09.276Z,9.22
2023-03-30T03:58:09.262Z,9.22
2023-03-30T03:59:09.251Z,9.37
2023-03-30T04:00:09.217Z,9.40
2023-03-30T04:01:09.360Z,9.47
2023-03-30T04:02:09.292Z,9.48
2023-03-30T04:03:09.306Z,9.54
2023-03-30T04:04:09.185Z,9.55
2023-03-30T04:05:09.160Z,9.58
2023-03-30T04:06:09.147Z,9.55
2023-03-30T04:07:09.128Z,9.68
2023-03-30T04:08:09.107Z,9.66
2023-03-30T04:09:09.084Z,9.74
2023-03-30T04:10:09.150Z,9.72
2023-03-30T04:11:09.100Z,9.83
2023-03-30T04:12:09.081Z,9.86
2023-03-30T04:13:09.051Z,9.87
2023-03-30T04:14:09.054Z,9.87
2023-03-30T04:15:09.070Z,9.91
2023-03-30T04:16:09.087Z,9.94
2023-03-30T04:17:09.264Z,9.97
2023-03-30T04:18:09.143Z,10.10
2023-03-30T04:19:09.033Z,10.09
2023-03-30T04:20:08.982Z,10.09
2023-03-30T04:21:08.994Z,10.12
2023-03-30T04:22:08.990Z,10.09
2023-03-30T04:23:08.957Z,10.16
2023-03-30T04:24:08.959Z,10.15
2023-03-30T04:25:08.972Z,10.13
2023-03-30T04:26:08.920Z,10.17
2023-03-30T04:27:08.908Z,10.22
2023-03-30T04:28:08.891Z,10.19
2023-03-30T04:29:08.891Z,10.22
2023-03-30T04:30:08.887Z,10.19
2023-03-30T04:31:09.077Z,10.15
2023-03-30T04:32:08.963Z,10.19
2023-03-30T04:33:08.893Z,10.19
2023-03-30T04:34:08.847Z,10.16
2023-03-30T04:35:08.826Z,10.25
2023-03-30T04:36:09.060Z,10.19
2023-03-30T04:37:08.827Z,10.22
2023-03-30T04:38:08.801Z,10.23
2023-03-30T04:39:08.797Z,10.23
2023-03-30T04:40:08.772Z,10.26
2023-03-30T04:41:08.768Z,10.26
2023-03-30T04:42:08.762Z,10.37
2023-03-30T04:43:08.753Z,10.37
2023-03-30T04:44:08.774Z,10.34
2023-03-30T04:45:08.740Z,10.35
2023-03-30T04:46:08.804Z,10.33
2023-03-30T04:47:08.713Z,10.28
2023-03-30T04:48:08.784Z,10.33
2023-03-30T04:49:08.693Z,10.34
2023-03-30T04:50:08.693Z,10.37
2023-03-30T04:51:08.697Z,10.37
2023-03-30T04:52:08.654Z,10.42
2023-03-30T04:53:08.685Z,10.42
2023-03-30T04:54:08.680Z,10.35
2023-03-30T04:55:08.635Z,10.40
2023-03-30T04:56:08.619Z,10.42
2023-03-30T04:57:08.668Z,10.41
2023-03-30T04:58:08.608Z,10.64
2023-03-30T04:59:08.608Z,10.63
2023-03-30T05:00:08.608Z,10.81
2023-03-30T05:01:08.594Z,10.90
2023-03-30T05:02:08.612Z,10.94
2023-03-30T05:03:08.685Z,10.93
2023-03-30T05:04:08.552Z,10.94
2023-03-30T05:05:08.625Z,11.04
2023-03-30T05:06:08.527Z,11.18
2023-03-30T05:07:08.548Z,11.40
2023-03-30T05:08:08.514Z,11.63
2023-03-30T05:09:08.555Z,11.81
2023-03-30T05:10:08.478Z,12.00
2023-03-30T05:11:08.479Z,12.20
2023-03-30T05:12:08.511Z,12.32
2023-03-30T05:13:08.462Z,12.47
2023-03-30T05:14:08.453Z,12.55
2023-03-30T05:15:08.435Z,12.54
2023-03-30T05:16:08.411Z,12.54
2023-03-30T05:17:08.449Z,12.58
2023-03-30T05:18:08.467Z,12.50
2023-03-30T05:19:08.412Z,12.60
2023-03-30T05:20:08.462Z,12.62
2023-03-30T05:21:08.382Z,12.55
2023-03-30T05:22:08.382Z,12.54
2023-03-30T05:23:08.370Z,12.50
2023-03-30T05:24:08.360Z,12.64
2023-03-30T05:25:08.354Z,12.70
2023-03-30T05:26:08.342Z,12.70
2023-03-30T05:27:08.308Z,12.82
2023-03-30T05:28:08.315Z,12.85
2023-03-30T05:29:08.295Z,12.91
2023-03-30T05:30:08.368Z,12.93
2023-03-30T05:31:08.311Z,12.97
2023-03-30T05:32:08.275Z,12.87
2023-03-30T05:33:08.317Z,12.83
2023-03-30T05:34:08.263Z,12.86
2023-03-30T05:35:08.229Z,12.85
2023-03-30T05:36:08.301Z,12.93
2023-03-30T05:37:08.226Z,13.01
2023-03-30T05:38:08.263Z,13.11
2023-03-30T05:39:08.211Z,13.09
2023-03-30T05:40:08.225Z,13.11
2023-03-30T05:41:08.208Z,13.03
2023-03-30T05:42:08.188Z,13.04
2023-03-30T05:43:09.325Z,12.94
2023-03-30T05:44:08.174Z,12.94
2023-03-30T05:45:08.145Z,12.94
2023-03-30T05:46:08.252Z,12.90
2023-03-30T05:47:08.165Z,12.87
2023-03-30T05:48:08.111Z,12.94
2023-03-30T05:49:08.165Z,12.93
2023-03-30T05:50:08.132Z,12.93
2023-03-30T05:51:08.450Z,12.83
2023-03-30T05:52:08.308Z,12.78
2023-03-30T05:53:08.325Z,12.70
2023-03-30T05:54:08.062Z,12.70
2023-03-30T05:55:08.061Z,12.67
2023-03-30T05:56:08.056Z,12.62
2023-03-30T05:57:08.091Z,12.64
2023-03-30T05:58:08.023Z,12.68
2023-03-30T05:59:08.021Z,12.64
2023-03-30T06:00:08.018Z,12.78
2023-03-30T06:01:07.996Z,12.67
2023-03-30T06:02:10.730Z,12.61
2023-03-30T06:03:08.167Z,12.60
2023-03-30T06:04:08.095Z,12.46
2023-03-30T06:05:07.954Z,12.37
2023-03-30T06:06:07.957Z,12.32
2023-03-30T06:07:07.965Z,12.27
2023-03-30T06:08:07.929Z,12.17
2023-03-30T06:09:07.936Z,12.10
2023-03-30T06:10:07.915Z,12.03
2023-03-30T06:11:07.911Z,12.04
2023-03-30T06:12:07.889Z,11.97
2023-03-30T06:13:08.116Z,11.99
2023-03-30T06:14:07.871Z,11.87
2023-03-30T06:15:07.888Z,11.87
2023-03-30T06:16:07.876Z,11.91
2023-03-30T06:17:07.843Z,11.94
2023-03-30T06:18:07.902Z,11.83
2023-03-30T06:19:07.825Z,11.91
2023-03-30T06:20:07.820Z,11.94
2023-03-30T06:21:07.911Z,11.87
2023-03-30T06:22:07.804Z,11.86
2023-03-30T06:23:07.792Z,11.91
2023-03-30T06:24:07.805Z,11.83
2023-03-30T06:25:07.773Z,11.88
2023-03-30T06:26:07.860Z,11.80
2023-03-30T06:27:07.774Z,11.78
2023-03-30T06:28:07.743Z,11.91
2023-03-30T06:29:07.765Z,11.88
2023-03-30T06:30:07.736Z,11.91
2023-03-30T06:31:07.725Z,12.00
2023-03-30T06:32:07.749Z,11.95
2023-03-30T06:33:07.794Z,11.97
2023-03-30T06:34:07.692Z,12.03
2023-03-30T06:35:07.692Z,12.12
2023-03-30T06:36:07.741Z,12.12
2023-03-30T06:37:07.664Z,12.27
2023-03-30T06:38:07.655Z,12.25
2023-03-30T06:39:07.645Z,12.32
2023-03-30T06:40:07.630Z,12.50
2023-03-30T06:41:07.636Z,12.72
2023-03-30T06:42:07.633Z,12.93
2023-03-30T06:43:07.605Z,13.09
2023-03-30T06:44:07.589Z,13.31
2023-03-30T06:45:07.599Z,13.56
2023-03-30T06:46:07.866Z,13.72
2023-03-30T06:47:07.641Z,13.78
2023-03-30T06:48:07.827Z,13.85
2023-03-30T06:49:07.583Z,13.81
2023-03-30T06:50:07.854Z,13.79
2023-03-30T06:51:07.639Z,13.74
2023-03-30T06:52:08.690Z,13.71
2023-03-30T06:53:07.541Z,13.59
2023-03-30T06:54:07.573Z,13.59
2023-03-30T06:55:07.764Z,13.53
2023-03-30T06:56:07.518Z,13.44
2023-03-30T06:57:07.560Z,13.39
2023-03-30T06:58:07.470Z,13.39
2023-03-30T06:59:07.471Z,13.41
2023-03-30T07:00:07.459Z,13.47
2023-03-30T07:01:07.560Z,13.46
2023-03-30T07:02:07.453Z,13.54
2023-03-30T07:03:07.486Z,13.47
2023-03-30T07:04:07.518Z,13.52
2023-03-30T07:05:07.451Z,13.57
2023-03-30T07:06:07.403Z,13.57
2023-03-30T07:07:07.413Z,13.56
2023-03-30T07:08:07.453Z,13.57
2023-03-30T07:09:07.401Z,13.49
2023-03-30T07:10:07.398Z,13.54
2023-03-30T07:11:07.442Z,13.62
2023-03-30T07:12:07.415Z,13.59
2023-03-30T07:13:07.391Z,13.65
2023-03-30T07:14:07.375Z,13.68
2023-03-30T07:15:07.349Z,13.68
2023-03-30T07:16:07.323Z,13.63
2023-03-30T07:17:07.664Z,13.59
2023-03-30T07:18:07.372Z,13.57
2023-03-30T07:19:07.302Z,13.63
2023-03-30T07:20:07.331Z,13.57
2023-03-30T07:21:07.431Z,13.70
2023-03-30T07:22:07.276Z,13.62
2023-03-30T07:23:07.280Z,13.75
2023-03-30T07:24:07.290Z,13.72
2023-03-30T07:25:07.285Z,13.67
2023-03-30T07:26:07.251Z,13.72
2023-03-30T07:27:07.245Z,13.74
2023-03-30T07:28:07.226Z,13.72
2023-03-30T07:29:07.484Z,13.71
2023-03-30T07:30:20.694Z,13.74
2023-03-30T07:31:07.548Z,13.72
2023-03-30T07:32:07.225Z,13.71
2023-03-30T07:33:07.370Z,13.70
2023-03-30T07:34:07.162Z,13.62
2023-03-30T07:35:07.405Z,13.70
2023-03-30T07:36:07.259Z,13.65
2023-03-30T07:37:07.710Z,13.59
2023-03-30T07:38:07.136Z,13.60
2023-03-30T07:39:07.208Z,13.59
2023-03-30T07:40:07.174Z,13.62
2023-03-30T07:41:07.139Z,13.70
2023-03-30T07:42:07.111Z,13.67
2023-03-30T07:43:07.128Z,13.72
2023-03-30T07:44:07.118Z,13.68
2023-03-30T07:45:07.159Z,13.68
2023-03-30T07:46:07.127Z,13.70
2023-03-30T07:47:07.125Z,13.72
2023-03-30T07:48:07.132Z,13.62
2023-03-30T07:49:07.088Z,13.59
2023-03-30T07:50:07.088Z,13.65
2023-03-30T07:51:07.042Z,13.65
2023-03-30T07:52:07.029Z,13.57
2023-03-30T07:53:07.004Z,13.60
2023-03-30T07:54:07.023Z,13.60
2023-03-30T07:55:06.988Z,13.60
2023-03-30T07:56:06.976Z,13.67
2023-03-30T07:57:07.009Z,13.62
2023-03-30T07:58:06.965Z,13.62
2023-03-30T07:59:06.977Z,13.70
2023-03-30T08:00:06.967Z,13.67
2023-03-30T08:01:07.051Z,13.62
2023-03-30T08:02:06.927Z,13.60
2023-03-30T08:03:06.987Z,13.72
2023-03-30T08:04:06.984Z,13.62
2023-03-30T08:05:06.996Z,13.62
2023-03-30T08:06:06.886Z,13.59
2023-03-30T08:07:06.922Z,13.59
2023-03-30T08:08:06.897Z,13.62
2023-03-30T08:09:06.885Z,13.59
2023-03-30T08:10:06.884Z,13.54
2023-03-30T08:11:06.924Z,13.53
2023-03-30T08:12:06.861Z,13.54
2023-03-30T08:13:06.878Z,13.63
2023-03-30T08:14:06.843Z,13.75
2023-03-30T08:15:06.818Z,13.77
2023-03-30T08:16:06.880Z,13.72
2023-03-30T08:17:06.824Z,13.74
2023-03-30T08:18:06.863Z,13.75
2023-03-30T08:19:06.841Z,13.75
2023-03-30T08:20:06.794Z,13.78
2023-03-30T08:21:06.987Z,13.75
2023-03-30T08:22:06.821Z,13.86
2023-03-30T08:23:06.757Z,13.89
2023-03-30T08:24:06.796Z,13.85
2023-03-30T08:25:06.782Z,13.87
2023-03-30T08:26:06.738Z,13.92
2023-03-30T08:27:06.750Z,13.96
2023-03-30T08:28:06.726Z,13.96
2023-03-30T08:29:06.716Z,14.04
2023-03-30T08:30:06.709Z,13.99
2023-03-30T08:31:06.998Z,14.03
2023-03-30T08:32:06.869Z,14.04
2023-03-30T08:33:06.947Z,13.99
2023-03-30T08:34:06.707Z,14.00
2023-03-30T08:35:06.663Z,14.00
2023-03-30T08:36:06.762Z,13.96
2023-03-30T08:37:06.667Z,14.07
2023-03-30T08:38:06.681Z,14.08
2023-03-30T08:39:06.652Z,13.97
2023-03-30T08:40:06.632Z,14.05
2023-03-30T08:41:06.959Z,14.08
2023-03-30T08:42:06.594Z,13.99
2023-03-30T08:43:06.819Z,14.04
2023-03-30T08:44:06.606Z,14.00
2023-03-30T08:45:06.628Z,14.12
2023-03-30T08:46:06.586Z,14.08
2023-03-30T08:47:06.579Z,14.03
2023-03-30T08:48:06.678Z,14.03
2023-03-30T08:49:06.555Z,14.11
2023-03-30T08:50:06.526Z,14.14
2023-03-30T08:51:06.806Z,14.17
2023-03-30T08:52:06.531Z,14.14
2023-03-30T08:53:06.590Z,14.22
2023-03-30T08:54:06.528Z,14.14
2023-03-30T08:55:06.484Z,14.23
2023-03-30T08:56:06.517Z,14.20
2023-03-30T08:57:06.529Z,14.26
2023-03-30T08:58:06.498Z,14.18
2023-03-30T08:59:06.482Z,14.20
2023-03-30T09:00:06.452Z,14.28
2023-03-30T09:01:06.768Z,14.26
2023-03-30T09:02:06.441Z,14.26
2023-03-30T09:03:06.486Z,14.18
2023-03-30T09:04:06.626Z,14.26
2023-03-30T09:05:06.400Z,14.28
2023-03-30T09:06:06.414Z,14.26
2023-03-30T09:07:06.421Z,14.32
2023-03-30T09:08:06.357Z,14.33
2023-03-30T09:09:06.410Z,14.18
2023-03-30T09:10:06.402Z,14.17
2023-03-30T09:11:06.553Z,14.10
2023-03-30T09:12:06.379Z,13.93
2023-03-30T09:13:06.356Z,13.92
2023-03-30T09:14:06.353Z,13.93
2023-03-30T09:15:06.537Z,13.83
2023-03-30T09:16:06.309Z,13.85
2023-03-30T09:17:06.321Z,13.92
2023-03-30T09:18:06.336Z,13.83
2023-03-30T09:19:06.266Z,13.85
2023-03-30T09:20:06.251Z,13.83
2023-03-30T09:21:06.762Z,13.87
2023-03-30T09:22:06.264Z,13.92
2023-03-30T09:23:06.242Z,13.89
2023-03-30T09:24:06.219Z,13.85
2023-03-30T09:25:06.245Z,13.87
2023-03-30T09:26:06.424Z,13.97
2023-03-30T09:27:06.214Z,13.89
2023-03-30T09:28:06.396Z,13.85
2023-03-30T09:29:06.203Z,13.96
2023-03-30T09:30:06.246Z,14.00
2023-03-30T09:31:06.492Z,14.03
2023-03-30T09:32:06.191Z,14.10
2023-03-30T09:33:06.176Z,14.14
2023-03-30T09:34:08.771Z,14.11
2023-03-30T09:35:06.130Z,14.26
2023-03-30T09:36:06.356Z,14.28
2023-03-30T09:37:06.143Z,14.32
2023-03-30T09:38:06.149Z,14.37
2023-03-30T09:39:06.097Z,14.44
2023-03-30T09:40:06.099Z,14.43
2023-03-30T09:41:06.272Z,14.48
2023-03-30T09:42:06.094Z,14.58
2023-03-30T09:43:06.106Z,14.65
2023-03-30T09:44:06.104Z,14.70
2023-03-30T09:45:06.067Z,14.86
2023-03-30T09:46:06.409Z,14.91
2023-03-30T09:47:06.031Z,14.94
2023-03-30T09:48:06.114Z,15.04
2023-03-30T09:49:06.086Z,15.19
2023-03-30T09:50:06.012Z,15.27
2023-03-30T09:51:06.021Z,15.33
2023-03-30T09:52:06.006Z,15.43
2023-03-30T09:53:05.994Z,15.61
2023-03-30T09:54:05.977Z,15.82
2023-03-30T09:55:06.179Z,16.04
2023-03-30T09:56:06.117Z,16.10
2023-03-30T09:57:06.053Z,16.21
2023-03-30T09:58:05.946Z,16.21
2023-03-30T09:59:05.959Z,16.15
2023-03-30T10:00:05.935Z,16.12
2023-03-30T10:01:05.976Z,16.00
2023-03-30T10:02:06.884Z,16.09
2023-03-30T10:03:06.043Z,15.98
2023-03-30T10:04:06.149Z,15.98
2023-03-30T10:05:05.894Z,16.12
2023-03-30T10:06:06.233Z,16.26
2023-03-30T10:07:18.099Z,16.35
2023-03-30T10:08:05.879Z,16.53
2023-03-30T10:09:05.919Z,16.65
2023-03-30T10:10:05.886Z,16.60
2023-03-30T10:11:05.911Z,16.60
2023-03-30T10:12:05.935Z,16.66
2023-03-30T10:13:05.884Z,16.56
2023-03-30T10:14:05.895Z,16.51
2023-03-30T10:15:05.893Z,16.49
2023-03-30T10:16:05.938Z,16.47
2023-03-30T10:17:05.873Z,16.38
2023-03-30T10:18:06.040Z,16.33
2023-03-30T10:19:05.802Z,16.35
2023-03-30T10:20:13.693Z,16.26
2023-03-30T10:21:05.842Z,16.21
2023-03-30T10:22:05.812Z,16.33
2023-03-30T10:23:05.813Z,16.16
2023-03-30T10:24:05.771Z,16.24
2023-03-30T10:25:08.042Z,16.16
2023-03-30T10:26:05.900Z,16.32
2023-03-30T10:27:05.756Z,16.35
2023-03-30T10:28:05.744Z,16.35
2023-03-30T10:29:05.792Z,16.39
2023-03-30T10:30:05.738Z,16.39
2023-03-30T10:31:05.789Z,16.39
2023-03-30T10:32:05.764Z,16.41
2023-03-30T10:33:05.783Z,16.47
2023-03-30T10:34:05.735Z,16.47
2023-03-30T10:35:05.753Z,16.50
2023-03-30T10:36:05.963Z,16.61
2023-03-30T10:37:05.704Z,16.69
2023-03-30T10:38:05.674Z,16.78
2023-03-30T10:39:05.675Z,16.83
2023-03-30T10:40:05.652Z,16.79
2023-03-30T10:41:05.661Z,16.86
2023-03-30T10:42:05.647Z,17.04
2023-03-30T10:43:05.637Z,17.30
2023-03-30T10:44:05.654Z,17.41
2023-03-30T10:45:05.878Z,17.63
2023-03-30T10:46:18.395Z,17.54
2023-03-30T10:47:05.675Z,17.65
2023-03-30T10:48:05.681Z,17.57
2023-03-30T10:49:05.619Z,17.54
2023-03-30T10:50:05.623Z,17.56
2023-03-30T10:51:05.625Z,17.46
2023-03-30T10:52:05.596Z,17.27
2023-03-30T10:53:05.581Z,17.30
2023-03-30T10:54:05.605Z,17.38
2023-03-30T10:55:05.575Z,17.34
2023-03-30T10:56:05.799Z,17.16
2023-03-30T10:57:05.616Z,17.11
2023-03-30T10:58:05.578Z,17.08
2023-03-30T10:59:05.596Z,17.11
2023-03-30T11:00:05.546Z,17.14
2023-03-30T11:01:05.621Z,17.12
2023-03-30T11:02:05.569Z,17.08
2023-03-30T11:03:05.626Z,17.01
2023-03-30T11:04:20.551Z,17.01
2023-03-30T11:05:05.538Z,16.99
2023-03-30T11:06:05.771Z,16.97
2023-03-30T11:07:05.504Z,16.97
2023-03-30T11:08:05.513Z,16.97
2023-03-30T11:09:05.479Z,16.96
2023-03-30T11:10:05.498Z,16.90
2023-03-30T11:11:05.490Z,16.94
2023-03-30T11:12:05.481Z,16.91
2023-03-30T11:13:05.465Z,16.87
2023-03-30T11:14:05.504Z,16.87
2023-03-30T11:15:05.445Z,16.79
2023-03-30T11:16:05.764Z,17.04
2023-03-30T11:17:05.529Z,17.39
2023-03-30T11:18:05.481Z,17.71
2023-03-30T11:19:05.491Z,17.87
2023-03-30T11:20:05.453Z,18.25
2023-03-30T11:21:05.400Z,18.59
2023-03-30T11:22:05.428Z,18.77
2023-03-30T11:23:05.455Z,18.89
2023-03-30T11:24:05.388Z,19.09
2023-03-30T11:25:05.373Z,19.27
2023-03-30T11:26:05.593Z,19.40
2023-03-30T11:27:05.405Z,19.56
2023-03-30T11:28:05.402Z,19.73
2023-03-30T11:29:05.376Z,19.59
2023-03-30T11:30:05.368Z,19.62
2023-03-30T11:31:05.367Z,19.54
2023-03-30T11:32:05.432Z,19.45
2023-03-30T11:33:05.406Z,19.66
2023-03-30T11:34:05.349Z,19.59
2023-03-30T11:35:05.362Z,19.63
2023-03-30T11:36:05.621Z,19.54
2023-03-30T11:37:05.355Z,19.37
2023-03-30T11:38:05.303Z,19.18
2023-03-30T11:39:05.910Z,19.19
2023-03-30T11:40:05.378Z,19.14
2023-03-30T11:41:05.279Z,19.16
2023-03-30T11:42:05.286Z,19.21
2023-03-30T11:43:05.276Z,19.24
2023-03-30T11:44:05.272Z,19.33
2023-03-30T11:45:05.289Z,19.29
2023-03-30T11:46:05.542Z,19.49
2023-03-30T11:47:05.299Z,19.51
2023-03-30T11:48:05.359Z,19.58
2023-03-30T11:49:05.305Z,19.76
2023-03-30T11:50:05.282Z,19.88
2023-03-30T11:51:05.470Z,19.88
2023-03-30T11:52:05.348Z,19.91
2023-03-30T11:53:05.244Z,19.92
2023-03-30T11:54:05.272Z,19.95
2023-03-30T11:55:05.253Z,19.91
2023-03-30T11:56:05.516Z,19.82
2023-03-30T11:57:05.324Z,19.59
2023-03-30T11:58:06.804Z,19.36
2023-03-30T11:59:05.196Z,19.41
2023-03-30T12:00:05.232Z,19.31
2023-03-30T12:01:05.361Z,19.31
2023-03-30T12:02:05.245Z,19.26
2023-03-30T12:03:05.345Z,19.19
2023-03-30T12:04:05.207Z,19.14
2023-03-30T12:05:05.255Z,19.02
2023-03-30T12:06:05.396Z,18.86
2023-03-30T12:07:05.180Z,18.70
2023-03-30T12:08:05.173Z,18.60
2023-03-30T12:09:05.171Z,18.55
2023-03-30T12:10:07.520Z,18.60
2023-03-30T12:11:05.397Z,18.52
2023-03-30T12:12:05.152Z,18.58
2023-03-30T12:13:05.143Z,18.59
2023-03-30T12:14:05.146Z,18.60
2023-03-30T12:15:05.124Z,18.50
2023-03-30T12:16:05.591Z,18.45
2023-03-30T12:17:05.133Z,18.37
2023-03-30T12:18:05.133Z,18.31
2023-03-30T12:19:05.567Z,18.40
2023-03-30T12:20:05.178Z,18.33
2023-03-30T12:21:05.134Z,18.33
2023-03-30T12:22:05.109Z,18.33
2023-03-30T12:23:05.091Z,18.43
2023-03-30T12:24:05.139Z,18.55
2023-03-30T12:25:05.121Z,18.59
2023-03-30T12:26:05.335Z,18.60
2023-03-30T12:27:07.058Z,18.47
2023-03-30T12:28:05.097Z,18.52
2023-03-30T12:30:05.056Z,18.55
2023-03-30T12:31:05.174Z,18.62
2023-03-30T12:32:05.367Z,18.75
2023-03-30T12:33:05.131Z,18.84
2023-03-30T12:34:05.030Z,18.89
2023-03-30T12:35:05.054Z,18.99
2023-03-30T12:36:05.328Z,18.96
2023-03-30T12:37:05.041Z,18.98
2023-03-30T12:38:05.025Z,19.00
2023-03-30T12:39:05.008Z,19.00
2023-03-30T12:40:05.030Z,18.96
2023-03-30T12:41:04.972Z,18.75
2023-03-30T12:42:04.983Z,18.71
2023-03-30T12:43:05.006Z,18.66
2023-03-30T12:44:04.979Z,18.63
2023-03-30T12:45:04.980Z,18.58
2023-03-30T12:46:05.212Z,18.41
2023-03-30T12:47:06.942Z,18.40
2023-03-30T12:48:05.030Z,18.33
2023-03-30T12:49:05.974Z,18.25
2023-03-30T12:50:04.947Z,18.19
2023-03-30T12:51:05.171Z,18.16
2023-03-30T12:52:04.933Z,18.23
2023-03-30T12:53:04.939Z,18.15
2023-03-30T12:54:04.924Z,18.11
2023-03-30T12:55:04.916Z,18.00
2023-03-30T12:56:05.086Z,18.00